createdAt,value
2017-08-25T00:00:49.946Z,21.04
2017-08-25T00:03:17.397Z,20.75
2017-08-25T00:05:44.850Z,20.59
2017-08-25T00:08:12.323Z,20.44
2017-08-25T00:10:39.765Z,20.59
2017-08-25T00:13:07.332Z,20.60
2017-08-25T00:15:34.781Z,20.60
2017-08-25T00:18:02.237Z,20.64
2017-08-25T00:20:29.678Z,20.60
2017-08-25T00:22:57.125Z,20.58
2017-08-25T00:25:24.593Z,20.70
2017-08-25T00:27:52.044Z,20.67
2017-08-25T00:30:19.513Z,20.75
2017-08-25T00:32:46.984Z,20.69
2017-08-25T00:35:14.448Z,20.67
2017-08-25T00:37:41.890Z,20.64
2017-08-25T00:40:09.360Z,20.74
2017-08-25T00:42:36.826Z,20.83
2017-08-25T00:45:04.812Z,20.87
2017-08-25T00:47:32.301Z,20.81
2017-08-25T00:49:59.821Z,20.85
2017-08-25T00:52:27.349Z,20.76
2017-08-25T00:54:54.836Z,20.59
2017-08-25T00:57:22.300Z,20.51
2017-08-25T00:59:49.745Z,20.40
2017-08-25T01:02:17.213Z,20.29
2017-08-25T01:04:44.677Z,20.21
2017-08-25T01:07:12.127Z,20.05
2017-08-25T01:09:39.585Z,19.89
2017-08-25T01:12:07.185Z,19.94
2017-08-25T01:14:34.947Z,19.92
2017-08-25T01:17:02.714Z,19.89
2017-08-25T01:19:30.156Z,19.71
2017-08-25T01:21:57.610Z,19.68
2017-08-25T01:24:25.076Z,19.66
2017-08-25T01:26:52.517Z,19.69
2017-08-25T01:29:19.963Z,19.63
2017-08-25T01:31:47.442Z,19.59
2017-08-25T01:34:14.897Z,19.55
2017-08-25T01:36:42.374Z,19.48
2017-08-25T01:39:09.854Z,19.44
2017-08-25T01:41:37.307Z,19.40
2017-08-25T01:44:04.776Z,19.37
2017-08-25T01:46:32.241Z,19.34
2017-08-25T01:48:59.693Z,19.27
2017-08-25T01:51:27.141Z,19.13
2017-08-25T01:53:54.610Z,19.02
2017-08-25T01:56:22.127Z,18.98
2017-08-25T01:58:49.613Z,18.97
2017-08-25T02:01:17.064Z,18.87
2017-08-25T02:03:44.510Z,18.84
2017-08-25T02:06:11.988Z,18.72
2017-08-25T02:08:39.453Z,18.63
2017-08-25T02:11:06.941Z,18.83
2017-08-25T02:13:34.389Z,18.57
2017-08-25T02:16:01.861Z,18.38
2017-08-25T02:18:29.320Z,18.45
2017-08-25T02:20:56.999Z,18.31
2017-08-25T02:23:24.449Z,18.21
2017-08-25T02:25:51.901Z,18.14
2017-08-25T02:28:19.378Z,18.24
2017-08-25T02:30:46.819Z,18.32
2017-08-25T02:33:14.610Z,18.54
2017-08-25T02:35:42.054Z,18.40
2017-08-25T02:38:09.502Z,18.28
2017-08-25T02:40:37.011Z,18.22
2017-08-25T02:43:04.459Z,18.02
2017-08-25T02:45:31.933Z,17.86
2017-08-25T02:47:59.377Z,18.03
2017-08-25T02:50:26.845Z,17.90
2017-08-25T02:52:54.289Z,17.95
2017-08-25T02:55:21.763Z,17.95
2017-08-25T02:57:49.238Z,17.64
2017-08-25T03:00:16.687Z,17.33
2017-08-25T03:02:44.137Z,17.29
2017-08-25T03:05:11.615Z,17.60
2017-08-25T03:07:39.055Z,17.47
2017-08-25T03:10:06.508Z,17.63
2017-08-25T03:12:33.989Z,17.52
2017-08-25T03:15:01.458Z,17.39
2017-08-25T03:17:28.901Z,17.28
2017-08-25T03:19:56.359Z,17.13
2017-08-25T03:22:23.829Z,17.10
2017-08-25T03:24:51.279Z,17.06
2017-08-25T03:27:18.822Z,17.05
2017-08-25T03:29:46.266Z,16.94
2017-08-25T03:32:13.736Z,16.92
2017-08-25T03:34:41.208Z,16.81
2017-08-25T03:37:08.661Z,16.83
2017-08-25T03:39:36.125Z,16.79
2017-08-25T03:42:03.576Z,17.09
2017-08-25T03:44:31.021Z,17.58
2017-08-25T03:46:58.485Z,16.94
2017-08-25T03:49:25.965Z,17.36
2017-08-25T03:51:53.414Z,17.22
2017-08-25T03:54:20.876Z,17.23
2017-08-25T03:56:48.324Z,17.08
2017-08-25T03:59:15.794Z,17.99
2017-08-25T04:01:43.369Z,18.37
2017-08-25T04:04:10.817Z,18.57
2017-08-25T04:06:38.609Z,18.10
2017-08-25T04:09:06.049Z,17.48
2017-08-25T04:11:33.498Z,18.18
2017-08-25T04:14:00.989Z,17.89
2017-08-25T04:16:28.436Z,17.29
2017-08-25T04:18:55.882Z,17.33
2017-08-25T04:21:23.357Z,17.55
2017-08-25T04:23:50.833Z,18.44
2017-08-25T04:26:18.303Z,18.62
2017-08-25T04:28:45.746Z,17.86
2017-08-25T04:31:13.193Z,19.03
2017-08-25T04:33:40.657Z,18.99
2017-08-25T04:36:08.104Z,17.84
2017-08-25T04:38:35.580Z,17.75
2017-08-25T04:41:03.017Z,17.37
2017-08-25T04:43:30.489Z,17.44
2017-08-25T04:45:57.941Z,19.23
2017-08-25T04:48:25.387Z,19.56
2017-08-25T04:50:52.964Z,18.36
2017-08-25T04:53:20.622Z,18.64
2017-08-25T04:55:48.068Z,18.22
2017-08-25T04:58:15.551Z,18.64
2017-08-25T05:00:43.041Z,18.54
2017-08-25T05:03:10.493Z,18.74
2017-08-25T05:05:37.973Z,17.58
2017-08-25T05:08:05.425Z,17.36
2017-08-25T05:10:32.866Z,17.36
2017-08-25T05:13:00.337Z,17.76
2017-08-25T05:15:27.781Z,18.44
2017-08-25T05:17:55.261Z,18.12
2017-08-25T05:20:22.709Z,17.80
2017-08-25T05:22:50.185Z,18.53
2017-08-25T05:25:17.639Z,18.89
2017-08-25T05:27:45.096Z,18.78
2017-08-25T05:30:12.576Z,18.62
2017-08-25T05:32:40.020Z,18.14
2017-08-25T05:35:07.481Z,18.60
2017-08-25T05:37:34.934Z,18.03
2017-08-25T05:40:02.402Z,18.09
2017-08-25T05:42:29.848Z,18.00
2017-08-25T05:44:57.329Z,18.10
2017-08-25T05:47:24.784Z,18.21
2017-08-25T05:49:52.269Z,18.06
2017-08-25T05:52:19.742Z,18.01
2017-08-25T05:54:47.198Z,18.26
2017-08-25T05:57:14.669Z,18.39
2017-08-25T05:59:42.116Z,18.15
2017-08-25T06:02:09.608Z,18.64
2017-08-25T06:04:37.075Z,18.76
2017-08-25T06:07:04.545Z,18.80
2017-08-25T06:09:31.990Z,18.70
2017-08-25T06:11:59.471Z,18.94
2017-08-25T06:14:26.920Z,19.07
2017-08-25T06:16:54.390Z,18.99
2017-08-25T06:19:21.836Z,19.13
2017-08-25T06:21:49.284Z,19.19
2017-08-25T06:24:16.754Z,19.33
2017-08-25T06:26:44.221Z,19.37
2017-08-25T06:29:11.674Z,19.40
2017-08-25T06:31:39.156Z,19.39
2017-08-25T06:34:06.606Z,19.38
2017-08-25T06:36:34.177Z,19.39
2017-08-25T06:39:01.623Z,19.61
2017-08-25T06:41:29.074Z,19.84
2017-08-25T06:43:56.657Z,19.98
2017-08-25T06:46:24.102Z,19.87
2017-08-25T06:48:51.567Z,20.18
2017-08-25T06:51:19.073Z,20.12
2017-08-25T06:53:46.578Z,20.32
2017-08-25T06:56:14.068Z,20.35
2017-08-25T06:58:41.510Z,20.37
2017-08-25T07:01:08.982Z,20.06
2017-08-25T07:03:36.448Z,20.39
2017-08-25T07:06:03.904Z,20.54
2017-08-25T07:08:31.344Z,20.61
2017-08-25T07:10:58.814Z,20.68
2017-08-25T07:13:26.282Z,20.86
2017-08-25T07:15:53.753Z,20.98
2017-08-25T07:18:21.215Z,21.02
2017-08-25T07:20:48.669Z,20.92
2017-08-25T07:23:16.149Z,21.00
2017-08-25T07:25:43.877Z,20.99
2017-08-25T07:28:11.351Z,21.09
2017-08-25T07:30:38.845Z,21.24
2017-08-25T07:33:06.325Z,21.28
2017-08-25T07:35:33.785Z,21.41
2017-08-25T07:38:01.256Z,21.35
2017-08-25T07:40:28.706Z,21.36
2017-08-25T07:42:56.189Z,21.63
2017-08-25T07:45:23.642Z,21.60
2017-08-25T07:47:51.113Z,21.96
2017-08-25T07:50:18.581Z,22.08
2017-08-25T07:52:46.056Z,21.76
2017-08-25T07:55:13.507Z,22.11
2017-08-25T07:57:40.980Z,22.35
2017-08-25T08:00:08.466Z,22.34
2017-08-25T08:02:36.074Z,22.34
2017-08-25T08:05:05.101Z,22.37
2017-08-25T08:07:32.594Z,22.36
2017-08-25T08:10:00.077Z,22.53
2017-08-25T08:12:27.531Z,22.51
2017-08-25T08:14:54.977Z,22.44
2017-08-25T08:17:22.857Z,22.90
2017-08-25T08:19:50.301Z,23.11
2017-08-25T08:22:17.766Z,22.98
2017-08-25T08:24:45.244Z,23.02
2017-08-25T08:27:12.680Z,23.18
2017-08-25T08:29:40.160Z,23.17
2017-08-25T08:32:07.606Z,23.09
2017-08-25T08:34:35.255Z,23.06
2017-08-25T08:37:02.721Z,23.21
2017-08-25T08:39:30.178Z,23.23
2017-08-25T08:41:57.645Z,22.80
2017-08-25T08:44:25.120Z,23.33
2017-08-25T08:46:52.560Z,23.49
2017-08-25T08:49:20.015Z,23.75
2017-08-25T08:51:47.485Z,23.88
2017-08-25T08:54:14.922Z,23.83
2017-08-25T08:56:42.650Z,23.44
2017-08-25T08:59:10.100Z,23.44
2017-08-25T09:01:37.549Z,24.12
2017-08-25T09:04:05.013Z,24.03
2017-08-25T09:06:36.508Z,23.90
2017-08-25T09:09:04.002Z,24.44
2017-08-25T09:11:31.477Z,24.55
2017-08-25T09:13:59.665Z,24.48
2017-08-25T09:16:28.246Z,24.45
2017-08-25T09:18:55.693Z,24.54
2017-08-25T09:21:23.411Z,24.43
2017-08-25T09:23:50.909Z,24.06
2017-08-25T09:26:19.317Z,24.68
2017-08-25T09:28:46.982Z,24.72
2017-08-25T09:31:14.823Z,25.02
2017-08-25T09:33:42.294Z,25.23
2017-08-25T09:36:10.605Z,25.50
2017-08-25T09:38:39.405Z,25.23
2017-08-25T09:41:07.172Z,25.44
2017-08-25T09:43:34.849Z,25.69
2017-08-25T09:46:02.319Z,25.78
2017-08-25T09:48:29.777Z,25.63
2017-08-25T09:50:57.251Z,25.87
2017-08-25T09:53:25.860Z,25.85
2017-08-25T09:55:54.289Z,25.37
2017-08-25T09:58:21.805Z,25.81
2017-08-25T10:00:49.294Z,25.90
2017-08-25T10:03:17.452Z,26.00
2017-08-25T10:05:46.472Z,25.78
2017-08-25T10:08:14.022Z,26.06
2017-08-25T10:10:41.829Z,26.28
2017-08-25T10:13:09.575Z,26.09
2017-08-25T10:15:38.201Z,26.23
2017-08-25T10:18:06.901Z,25.91
2017-08-25T10:20:34.945Z,26.13
2017-08-25T10:23:02.457Z,26.36
2017-08-25T10:25:29.913Z,26.61
2017-08-25T10:27:58.732Z,26.79
2017-08-25T10:30:27.613Z,26.96
2017-08-25T10:32:55.083Z,26.41
2017-08-25T10:38:45.449Z,27.06
2017-08-25T10:41:24.592Z,27.01
2017-08-25T10:44:04.139Z,27.44
2017-08-25T10:46:31.703Z,27.75
2017-08-25T10:48:59.425Z,27.67
2017-08-25T10:51:27.196Z,27.25
2017-08-25T10:53:54.645Z,27.38
2017-08-25T10:56:22.080Z,27.87
2017-08-25T10:58:49.549Z,27.86
2017-08-25T11:01:16.990Z,28.08
2017-08-25T11:03:44.461Z,27.54
2017-08-25T11:06:11.924Z,27.70
2017-08-25T11:08:39.394Z,27.99
2017-08-25T11:11:06.943Z,28.54
2017-08-25T11:13:34.402Z,28.56
2017-08-25T11:16:01.845Z,28.08
2017-08-25T11:18:29.324Z,27.89
2017-08-25T11:20:57.030Z,28.99
2017-08-25T11:23:24.473Z,28.91
2017-08-25T11:25:51.957Z,29.01
2017-08-25T11:28:19.396Z,29.34
2017-08-25T11:30:46.869Z,29.77
2017-08-25T11:33:14.321Z,29.70
2017-08-25T11:35:41.802Z,29.30
2017-08-25T11:38:09.267Z,30.14
2017-08-25T11:40:36.746Z,31.61
2017-08-25T11:43:04.209Z,31.41
2017-08-25T11:45:31.662Z,30.27
2017-08-25T11:47:59.141Z,30.01
2017-08-25T11:50:26.585Z,29.88
2017-08-25T11:52:54.060Z,29.80
2017-08-25T11:55:21.516Z,31.41
2017-08-25T11:57:49.223Z,31.75
2017-08-25T12:00:16.710Z,31.93
2017-08-25T12:02:44.161Z,33.32
2017-08-25T12:05:11.634Z,33.58
2017-08-25T12:07:39.088Z,33.95
2017-08-25T12:10:06.578Z,34.03
2017-08-25T12:12:34.042Z,33.09
2017-08-25T12:15:01.516Z,34.59
2017-08-25T12:17:28.974Z,34.68
2017-08-25T12:19:56.418Z,32.74
2017-08-25T12:22:23.895Z,32.79
2017-08-25T12:24:51.342Z,33.99
2017-08-25T12:27:18.817Z,32.34
2017-08-25T12:29:46.255Z,32.57
2017-08-25T12:32:13.965Z,32.43
2017-08-25T12:34:41.411Z,31.77
2017-08-25T12:37:08.858Z,33.88
2017-08-25T12:39:36.337Z,35.46
2017-08-25T12:42:03.855Z,36.17
2017-08-25T12:44:31.323Z,35.88
2017-08-25T12:46:58.769Z,36.12
2017-08-25T12:49:26.215Z,34.51
2017-08-25T12:51:53.686Z,34.93
2017-08-25T12:54:21.162Z,32.11
2017-08-25T12:56:48.642Z,32.77
2017-08-25T12:59:16.104Z,35.49
2017-08-25T13:01:43.573Z,35.69
2017-08-25T13:04:11.026Z,35.65
2017-08-25T13:06:38.498Z,35.73
2017-08-25T13:09:05.945Z,35.24
2017-08-25T13:11:33.390Z,36.17
2017-08-25T13:14:00.865Z,34.45
2017-08-25T13:16:28.303Z,34.99
2017-08-25T13:18:55.772Z,32.88
2017-08-25T13:21:23.213Z,33.52
2017-08-25T13:23:50.691Z,33.32
2017-08-25T13:26:18.173Z,32.94
2017-08-25T13:28:45.613Z,33.36
2017-08-25T13:31:13.302Z,33.77
2017-08-25T13:33:40.750Z,32.95
2017-08-25T13:36:08.189Z,32.92
2017-08-25T13:38:35.665Z,33.59
2017-08-25T13:41:03.117Z,34.13
2017-08-25T13:43:30.560Z,34.91
2017-08-25T13:45:58.022Z,36.08
2017-08-25T13:48:25.479Z,35.85
2017-08-25T13:50:52.945Z,36.99
2017-08-25T13:53:20.412Z,35.83
2017-08-25T13:55:47.856Z,35.58
2017-08-25T13:58:15.352Z,35.96
2017-08-25T14:00:42.798Z,34.60
2017-08-25T14:03:10.261Z,34.03
2017-08-25T14:05:37.714Z,32.64
2017-08-25T14:08:05.161Z,33.38
2017-08-25T14:10:32.633Z,32.55
2017-08-25T14:13:00.084Z,34.51
2017-08-25T14:15:27.535Z,34.13
2017-08-25T14:17:54.998Z,33.04
2017-08-25T14:20:22.824Z,33.06
2017-08-25T14:22:50.280Z,32.93
2017-08-25T14:25:17.725Z,32.54
2017-08-25T14:27:45.205Z,33.59
2017-08-25T14:30:12.657Z,32.99
2017-08-25T14:32:40.126Z,33.51
2017-08-25T14:35:07.601Z,33.37
2017-08-25T14:37:35.070Z,32.94
2017-08-25T14:40:02.521Z,32.52
2017-08-25T14:42:30.103Z,33.00
2017-08-25T14:44:57.553Z,32.64
2017-08-25T14:47:25.000Z,34.12
2017-08-25T14:49:52.465Z,33.93
2017-08-25T14:52:19.909Z,33.66
2017-08-25T14:54:47.383Z,34.50
2017-08-25T14:57:14.833Z,33.81
2017-08-25T14:59:42.287Z,34.01
2017-08-25T15:02:09.754Z,33.27
2017-08-25T15:04:37.200Z,32.88
2017-08-25T15:07:04.706Z,32.88
2017-08-25T15:09:32.211Z,34.12
2017-08-25T15:11:59.682Z,33.49
2017-08-25T15:14:27.136Z,33.00
2017-08-25T15:16:55.002Z,33.08
2017-08-25T15:19:22.449Z,32.58
2017-08-25T15:21:49.893Z,32.38
2017-08-25T15:24:17.360Z,32.49
2017-08-25T15:26:44.805Z,32.60
2017-08-25T15:29:12.269Z,32.45
2017-08-25T15:31:39.747Z,33.38
2017-08-25T15:34:07.197Z,32.40
2017-08-25T15:36:34.665Z,33.89
2017-08-25T15:39:02.116Z,32.73
2017-08-25T15:41:29.556Z,31.50
2017-08-25T15:43:57.022Z,32.48
2017-08-25T15:46:24.476Z,32.27
2017-08-25T15:48:51.922Z,32.74
2017-08-25T15:51:19.390Z,32.08
2017-08-25T15:53:46.958Z,32.06
2017-08-25T15:56:14.402Z,31.86
2017-08-25T15:58:41.882Z,32.06
2017-08-25T16:01:09.338Z,32.28
2017-08-25T16:03:36.785Z,33.10
2017-08-25T16:06:04.258Z,33.27
2017-08-25T16:08:31.728Z,31.76
2017-08-25T16:10:59.174Z,31.86
2017-08-25T16:13:26.648Z,32.55
2017-08-25T16:15:54.122Z,31.96
2017-08-25T16:18:21.593Z,32.21
2017-08-25T16:20:49.057Z,32.13
2017-08-25T16:23:16.506Z,31.79
2017-08-25T16:25:43.976Z,32.80
2017-08-25T16:28:11.432Z,33.05
2017-08-25T16:30:39.100Z,31.57
2017-08-25T16:33:06.552Z,31.61
2017-08-25T16:35:33.996Z,33.13
2017-08-25T16:38:01.480Z,32.49
2017-08-25T16:40:28.929Z,32.23
2017-08-25T16:42:56.405Z,32.23
2017-08-25T16:45:23.845Z,31.54
2017-08-25T16:47:51.317Z,31.75
2017-08-25T16:50:18.770Z,31.60
2017-08-25T16:52:46.241Z,31.32
2017-08-25T16:55:13.714Z,31.67
2017-08-25T16:57:41.153Z,32.26
2017-08-25T17:00:08.619Z,32.01
2017-08-25T17:02:36.096Z,32.09
2017-08-25T17:05:03.573Z,32.14
2017-08-25T17:07:31.022Z,31.15
2017-08-25T17:09:58.473Z,30.97
2017-08-25T17:12:25.942Z,31.42
2017-08-25T17:14:53.417Z,31.27
2017-08-25T17:17:20.881Z,31.26
2017-08-25T17:19:48.348Z,30.92
2017-08-25T17:22:15.819Z,30.67
2017-08-25T17:24:43.331Z,30.37
2017-08-25T17:27:10.788Z,30.37
2017-08-25T17:29:38.243Z,29.97
2017-08-25T17:32:05.711Z,29.70
2017-08-25T17:34:33.190Z,29.40
2017-08-25T17:37:00.645Z,29.45
2017-08-25T17:39:28.114Z,28.95
2017-08-25T17:41:55.955Z,28.59
2017-08-25T17:44:23.407Z,28.24
2017-08-25T17:46:50.893Z,28.02
2017-08-25T17:49:18.363Z,27.49
2017-08-25T17:51:45.821Z,27.30
2017-08-25T17:54:13.298Z,27.17
2017-08-25T17:56:40.750Z,26.73
2017-08-25T17:59:08.234Z,26.62
2017-08-25T18:01:35.697Z,26.40
2017-08-25T18:04:03.170Z,26.16
2017-08-25T18:06:30.622Z,25.84
2017-08-25T18:08:58.104Z,25.78
2017-08-25T18:11:25.546Z,25.72
2017-08-25T18:13:53.022Z,25.55
2017-08-25T18:16:20.492Z,25.50
2017-08-25T18:18:47.973Z,24.63
2017-08-25T18:21:15.422Z,24.43
2017-08-25T18:23:42.869Z,24.86
2017-08-25T18:26:10.340Z,24.66
2017-08-25T18:28:37.797Z,24.56
2017-08-25T18:31:05.260Z,24.53
2017-08-25T18:33:32.730Z,24.42
2017-08-25T18:36:00.213Z,24.29
2017-08-25T18:38:27.666Z,24.08
2017-08-25T18:40:55.117Z,23.96
2017-08-25T18:43:22.592Z,23.86
2017-08-25T18:45:50.049Z,23.88
2017-08-25T18:48:17.520Z,23.77
2017-08-25T18:50:44.977Z,23.55
2017-08-25T18:53:12.462Z,23.50
2017-08-25T18:55:39.917Z,23.37
2017-08-25T18:58:07.405Z,23.35
2017-08-25T19:00:34.855Z,23.36
2017-08-25T19:03:02.308Z,23.35
2017-08-25T19:05:29.789Z,23.16
2017-08-25T19:07:57.237Z,23.09
2017-08-25T19:10:24.894Z,23.15
2017-08-25T19:12:52.340Z,23.09
2017-08-25T19:15:19.799Z,22.89
2017-08-25T19:17:47.264Z,22.71
2017-08-25T19:20:14.721Z,22.76
2017-08-25T19:22:42.204Z,22.65
2017-08-25T19:25:09.685Z,22.48
2017-08-25T19:27:37.134Z,22.42
2017-08-25T19:30:04.582Z,22.35
2017-08-25T19:32:32.049Z,22.27
2017-08-25T19:34:59.511Z,22.22
2017-08-25T19:37:26.985Z,22.20
2017-08-25T19:39:54.433Z,22.24
2017-08-25T19:42:21.905Z,22.25
2017-08-25T19:44:49.354Z,22.30
2017-08-25T19:47:16.794Z,22.17
2017-08-25T19:49:44.265Z,22.11
2017-08-25T19:52:11.712Z,21.98
2017-08-25T19:54:39.164Z,22.00
2017-08-25T19:57:06.639Z,21.97
2017-08-25T19:59:34.104Z,21.90
2017-08-25T20:02:01.572Z,21.89
2017-08-25T20:04:29.013Z,21.82
2017-08-25T20:06:56.472Z,21.72
2017-08-25T20:09:23.946Z,21.70
2017-08-25T20:11:51.392Z,21.66
2017-08-25T20:14:18.870Z,21.62
2017-08-25T20:16:46.358Z,21.49
2017-08-25T20:19:13.841Z,21.40
2017-08-25T20:21:41.289Z,21.29
2017-08-25T20:24:08.764Z,21.37
2017-08-25T20:26:36.241Z,21.33
2017-08-25T20:29:03.685Z,21.43
2017-08-25T20:31:31.144Z,21.35
2017-08-25T20:33:58.881Z,21.47
2017-08-25T20:36:26.329Z,21.33
2017-08-25T20:38:53.781Z,21.27
2017-08-25T20:41:21.256Z,21.25
2017-08-25T20:43:48.704Z,21.32
2017-08-25T20:46:16.177Z,21.29
2017-08-25T20:48:43.621Z,21.24
2017-08-25T20:51:11.087Z,21.20
2017-08-25T20:53:38.538Z,21.18
2017-08-25T20:56:06.004Z,21.10
2017-08-25T20:58:33.473Z,21.06
2017-08-25T21:01:00.934Z,21.09
2017-08-25T21:03:28.395Z,21.03
2017-08-25T21:05:55.879Z,20.99
2017-08-25T21:08:23.353Z,20.97
2017-08-25T21:10:50.821Z,20.89
2017-08-25T21:13:18.274Z,20.91
2017-08-25T21:15:45.742Z,20.93
2017-08-25T21:18:13.187Z,20.79
2017-08-25T21:20:40.668Z,20.85
2017-08-25T21:23:08.145Z,20.85
2017-08-25T21:25:35.599Z,20.82
2017-08-25T21:28:03.086Z,20.73
2017-08-25T21:30:30.540Z,20.73
2017-08-25T21:32:58.002Z,20.71
2017-08-25T21:35:25.485Z,20.70
2017-08-25T21:37:52.965Z,20.61
2017-08-25T21:40:20.416Z,20.55
2017-08-25T21:42:47.897Z,20.59
2017-08-25T21:45:15.341Z,20.50
2017-08-25T21:47:42.797Z,20.65
2017-08-25T21:50:10.263Z,20.79
2017-08-25T21:52:37.706Z,20.71
2017-08-25T21:55:05.177Z,20.58
2017-08-25T21:57:32.621Z,20.33
2017-08-25T22:00:00.098Z,20.36
2017-08-25T22:02:27.547Z,20.34
2017-08-25T22:04:55.024Z,20.30
2017-08-25T22:07:22.469Z,20.19
2017-08-25T22:09:49.917Z,20.17
2017-08-25T22:12:17.888Z,20.03
2017-08-25T22:14:45.327Z,19.84
2017-08-25T22:17:12.776Z,19.87
2017-08-25T22:19:40.241Z,19.79
2017-08-25T22:22:07.697Z,19.86
2017-08-25T22:24:35.147Z,19.82
2017-08-25T22:27:02.629Z,19.78
2017-08-25T22:29:30.078Z,19.93
2017-08-25T22:31:57.549Z,19.81
2017-08-25T22:34:24.988Z,19.84
2017-08-25T22:36:52.479Z,19.66
2017-08-25T22:39:19.925Z,19.75
2017-08-25T22:41:47.405Z,19.65
2017-08-25T22:44:14.845Z,19.60
2017-08-25T22:46:42.386Z,19.51
2017-08-25T22:49:09.881Z,19.82
2017-08-25T22:51:37.327Z,19.78
2017-08-25T22:54:04.785Z,19.63
2017-08-25T22:56:32.252Z,19.49
2017-08-25T22:58:59.726Z,19.70
2017-08-25T23:01:27.201Z,19.79
2017-08-25T23:03:54.658Z,19.79
2017-08-25T23:06:22.126Z,19.55
2017-08-25T23:08:49.573Z,19.48
2017-08-25T23:11:17.048Z,19.49
2017-08-25T23:13:44.520Z,19.44
2017-08-25T23:16:11.978Z,19.53
2017-08-25T23:18:39.460Z,19.59
2017-08-25T23:21:06.905Z,19.62
2017-08-25T23:23:34.370Z,19.63
2017-08-25T23:26:01.813Z,19.69
2017-08-25T23:28:29.296Z,19.75
2017-08-25T23:30:56.768Z,19.80
2017-08-25T23:33:24.244Z,19.67
2017-08-25T23:35:51.835Z,19.63
2017-08-25T23:38:19.287Z,19.60
2017-08-25T23:40:46.735Z,19.51
2017-08-25T23:43:14.218Z,19.55
2017-08-25T23:45:41.725Z,19.41
2017-08-25T23:48:09.185Z,19.51
2017-08-25T23:50:37.409Z,19.47
2017-08-25T23:53:04.882Z,19.36
2017-08-25T23:55:32.360Z,19.48
2017-08-25T23:57:59.831Z,19.45
